Terminal Aerodrome Forecast
Issued by NWS Sioux Falls, SD

Home | Current Version | Previous Version | Graphics & Text | Print | Product List | Glossary On
Versions: 1 2 3 4 5 6 7 8 9 10 11 12 13 14 15 16 17 18
000
FTUS43 KFSD 241720
TAFFSD
TAF
KFSD 241720Z 2418/2518 32023G29KT P6SM -SN OVC019
     FM241830 32020G30KT P6SM SCT020
     FM250100 32015KT P6SM SCT020
     FM250900 28005KT P6SM SCT050
     FM251000 23004KT 5SM BR BKN015=

USA.gov is the U.S. government's official web portal to all federal, state and local government web resources and services.